Estación Meteorológica Peña el Pijo (Robertgarden) [ 06/23/21 03:03:23 CEST ]

Fecha Hora Presion(HPa) Temp (°C) Humedad % Rocio (°C) Viento ( m/s) Direccion Lluvia 1Hora(mm) Lluvia 24H(mm) LLuvia Total(mm)
2016-Jan-03 01:01:14 1011.300 0.5 77 -3.1         658.37
2016-Jan-03 02:05:10 1010.500 1.6 79 -1.7         658.37
2016-Jan-03 03:03:19 1009.800 7.2 81 4.2         658.37
2016-Jan-03 04:01:21 1009.400 7.6 79 4.2         658.37
2016-Jan-03 05:01:15 1008.600 7.8 80 4.6         658.37
2016-Jan-03 06:01:16 1008.100 8.3 80 5.1         658.37
2016-Jan-03 07:01:16 1007.500 8.3 80 5.1         658.37
2016-Jan-03 08:01:13 1008.200 9.1 79 5.6         658.37
2016-Jan-03 09:01:10 1008.600 8.9 78 5.2         658.37
2016-Jan-03 10:01:14 1008.600 9.1 76 5.0         658.37
2016-Jan-03 11:01:19 1009.000 10.4 68 4.8 1.4 W     658.37
2016-Jan-03 12:01:13 1008.600 9.9 68 4.3         658.37
2016-Jan-03 13:01:16 1007.600 11.6 66 5.4         658.37
2016-Jan-03 14:01:13 1007.300 11.4 67 5.5         658.37
2016-Jan-03 15:01:16 1007.500 12.9 64 6.2 1.2 N     658.37
2016-Jan-03 16:01:16 1006.100 12.3 68 6.5         658.37
2016-Jan-03 17:01:14 1006.400 12.1 69 6.6         658.37
2016-Jan-03 18:01:17 1006.000 11.4 68 5.7 1.0 WNW     658.37
2016-Jan-03 19:01:13 1006.000 10.8 72 6.0         658.37
2016-Jan-03 20:01:13 1005.500 10.2 79 6.7         658.37
2016-Jan-03 21:01:18 1004.700 11.4 78 7.7         658.37
2016-Jan-03 22:01:17 1004.300 12.1 76 8.0 0.1 W     658.37
2016-Jan-03 23:01:13 1003.900 12.2 74 7.7         658.37

Temperatura Máxima:12°    Temperatura Mínima:
Presión Máxima:1011.300 Hpa    Presión Mínima:1003.900 Hpa


Volver